createdAt,value
2023-03-27T00:01:00.604Z,1.67
2023-03-27T00:03:28.597Z,2.93
2023-03-27T00:06:02.466Z,1.60
2023-03-27T00:08:29.483Z,2.03
2023-03-27T00:10:59.793Z,2.33
2023-03-27T00:13:27.061Z,1.43
2023-03-27T00:15:54.657Z,1.40
2023-03-27T00:18:21.791Z,1.27
2023-03-27T00:20:48.350Z,2.17
2023-03-27T00:23:15.029Z,1.90
2023-03-27T00:25:42.160Z,1.93
2023-03-27T00:28:08.769Z,2.00
2023-03-27T00:30:36.029Z,2.17
2023-03-27T00:33:02.620Z,1.60
2023-03-27T00:35:29.400Z,2.03
2023-03-27T00:37:56.107Z,2.43
2023-03-27T00:40:22.756Z,2.23
2023-03-27T00:42:50.568Z,1.47
2023-03-27T00:45:18.345Z,2.43
2023-03-27T00:47:49.360Z,1.33
2023-03-27T00:50:18.874Z,1.50
2023-03-27T00:52:47.932Z,2.47
2023-03-27T00:55:15.523Z,2.47
2023-03-27T00:57:43.012Z,1.50
2023-03-27T01:00:13.640Z,1.70
2023-03-27T01:02:44.718Z,2.13
2023-03-27T01:05:11.476Z,1.67
2023-03-27T01:07:38.189Z,2.20
2023-03-27T01:10:05.497Z,1.43
2023-03-27T01:12:50.889Z,1.57
2023-03-27T01:15:36.263Z,1.27
2023-03-27T01:18:10.311Z,2.23
2023-03-27T01:20:58.719Z,2.77
2023-03-27T01:23:59.763Z,2.07
2023-03-27T01:26:36.531Z,2.43
2023-03-27T01:29:32.318Z,2.27
2023-03-27T01:32:29.139Z,1.43
2023-03-27T01:35:24.462Z,1.90
2023-03-27T01:38:00.390Z,1.67
2023-03-27T01:40:32.618Z,3.00
2023-03-27T01:42:59.187Z,2.63
2023-03-27T01:45:33.160Z,1.70
2023-03-27T01:48:24.740Z,1.43
2023-03-27T01:50:54.223Z,1.93
2023-03-27T01:53:24.894Z,1.30
2023-03-27T01:55:54.124Z,1.80
2023-03-27T01:58:23.234Z,3.83
2023-03-27T02:01:04.283Z,2.03
2023-03-27T02:03:50.350Z,2.33
2023-03-27T02:06:18.537Z,2.57
2023-03-27T02:08:57.987Z,1.97
2023-03-27T02:11:26.265Z,1.60
2023-03-27T02:14:07.790Z,7.40
2023-03-27T02:16:41.350Z,1.27
2023-03-27T02:19:14.505Z,2.90
2023-03-27T02:21:41.035Z,1.40
2023-03-27T02:24:09.083Z,1.27
2023-03-27T02:26:35.763Z,2.83
2023-03-27T02:29:38.203Z,1.87
2023-03-27T02:32:27.395Z,2.77
2023-03-27T02:35:17.887Z,2.03
2023-03-27T02:38:13.978Z,4.30
2023-03-27T02:40:43.370Z,5.53
2023-03-27T02:43:19.904Z,1.50
2023-03-27T02:45:58.441Z,3.33
2023-03-27T02:48:40.356Z,1.30
2023-03-27T02:51:08.500Z,2.27
2023-03-27T02:53:42.228Z,2.23
2023-03-27T02:56:09.074Z,1.47
2023-03-27T02:58:40.020Z,3.00
2023-03-27T03:01:09.557Z,1.50
2023-03-27T03:03:39.161Z,1.83
2023-03-27T03:06:07.011Z,2.83
2023-03-27T03:08:38.265Z,2.13
2023-03-27T03:11:07.512Z,1.60
2023-03-27T03:13:34.171Z,2.43
2023-03-27T03:16:00.785Z,3.13
2023-03-27T03:18:27.504Z,2.33
2023-03-27T03:20:55.019Z,2.40
2023-03-27T03:23:22.535Z,5.23
2023-03-27T03:25:52.621Z,3.60
2023-03-27T03:28:19.531Z,2.40
2023-03-27T03:30:50.575Z,3.23
2023-03-27T03:33:18.106Z,3.23
2023-03-27T03:35:49.717Z,3.93
2023-03-27T03:38:24.878Z,2.67
2023-03-27T03:40:55.915Z,2.70
2023-03-27T03:43:23.198Z,3.30
2023-03-27T03:45:50.387Z,3.60
2023-03-27T03:48:17.424Z,2.73
2023-03-27T03:50:45.076Z,3.63
2023-03-27T03:53:12.287Z,5.77
2023-03-27T03:55:39.054Z,3.60
2023-03-27T03:58:05.732Z,2.80
2023-03-27T04:00:38.017Z,3.07
2023-03-27T04:03:11.603Z,4.27
2023-03-27T04:05:38.410Z,3.63
2023-03-27T04:08:07.525Z,2.70
2023-03-27T04:10:34.758Z,3.53
2023-03-27T04:13:01.437Z,2.87
2023-03-27T04:15:28.081Z,5.03
2023-03-27T04:17:54.733Z,2.93
2023-03-27T04:20:21.416Z,2.37
2023-03-27T04:22:48.766Z,2.47
2023-03-27T04:25:17.232Z,2.90
2023-03-27T04:27:44.218Z,3.43
2023-03-27T04:30:14.204Z,4.00
2023-03-27T04:32:41.001Z,3.43
2023-03-27T04:35:10.868Z,4.40
2023-03-27T04:37:41.679Z,4.43
2023-03-27T04:40:09.052Z,7.80
2023-03-27T04:42:35.911Z,8.77
2023-03-27T04:45:04.221Z,4.67
2023-03-27T04:47:31.800Z,10.93
2023-03-27T04:50:00.166Z,11.33
2023-03-27T04:52:29.636Z,9.87
2023-03-27T04:54:56.280Z,7.43
2023-03-27T04:57:26.782Z,4.43
2023-03-27T04:59:53.332Z,6.47
2023-03-27T05:02:20.038Z,8.00
2023-03-27T05:04:48.839Z,5.03
2023-03-27T05:07:15.590Z,6.93
2023-03-27T05:09:42.095Z,5.30
2023-03-27T05:12:08.774Z,6.97
2023-03-27T05:14:35.348Z,4.00
2023-03-27T05:17:02.430Z,2.77
2023-03-27T05:19:29.184Z,4.93
2023-03-27T05:21:55.699Z,5.50
2023-03-27T05:24:22.197Z,4.87
2023-03-27T05:26:48.714Z,5.90
2023-03-27T05:29:16.790Z,3.57
2023-03-27T05:31:43.416Z,7.83
2023-03-27T05:34:10.086Z,4.20
2023-03-27T05:36:36.731Z,3.83
2023-03-27T05:39:04.533Z,2.73
2023-03-27T05:41:31.274Z,2.70
2023-03-27T05:43:57.827Z,2.37
2023-03-27T05:46:24.356Z,2.67
2023-03-27T05:48:51.030Z,3.13
2023-03-27T05:51:17.960Z,4.63
2023-03-27T05:53:44.547Z,2.93
2023-03-27T05:56:11.102Z,3.43
2023-03-27T05:58:38.689Z,2.47
2023-03-27T06:01:06.017Z,3.30
2023-03-27T06:03:35.705Z,3.20
2023-03-27T06:06:10.291Z,2.47
2023-03-27T06:08:36.976Z,1.57
2023-03-27T06:11:10.609Z,4.10
2023-03-27T06:13:37.830Z,1.50
2023-03-27T06:16:05.707Z,3.37
2023-03-27T06:18:33.073Z,2.13
2023-03-27T06:20:59.779Z,5.23
2023-03-27T06:23:27.065Z,3.07
2023-03-27T06:25:53.616Z,2.33
2023-03-27T06:28:20.719Z,3.90
2023-03-27T06:30:47.738Z,7.27
2023-03-27T06:33:15.210Z,2.77
2023-03-27T06:35:45.375Z,5.43
2023-03-27T06:38:21.009Z,5.20
2023-03-27T06:40:47.757Z,6.43
2023-03-27T06:43:17.446Z,2.73
2023-03-27T06:45:46.295Z,2.90
2023-03-27T06:48:20.418Z,3.37
2023-03-27T06:50:49.308Z,2.77
2023-03-27T06:53:26.387Z,4.60
2023-03-27T06:55:54.352Z,3.93
2023-03-27T06:58:21.855Z,1.50
2023-03-27T07:00:49.602Z,4.00
2023-03-27T07:03:16.593Z,4.43
2023-03-27T07:05:43.442Z,2.93
2023-03-27T07:08:22.645Z,3.00
2023-03-27T07:10:59.892Z,3.27
2023-03-27T07:13:34.538Z,4.70
2023-03-27T07:16:01.140Z,2.60
2023-03-27T07:18:27.678Z,2.03
2023-03-27T07:20:54.387Z,1.50
2023-03-27T07:23:21.303Z,3.00
2023-03-27T07:25:50.080Z,5.20
2023-03-27T07:28:18.356Z,2.23
2023-03-27T07:30:45.113Z,3.70
2023-03-27T07:33:12.494Z,2.70
2023-03-27T07:35:46.429Z,3.43
2023-03-27T07:38:14.492Z,2.33
2023-03-27T07:40:43.068Z,3.10
2023-03-27T07:43:09.715Z,1.90
2023-03-27T07:45:36.497Z,1.83
2023-03-27T07:48:10.706Z,6.17
2023-03-27T07:50:37.770Z,3.13
2023-03-27T07:53:06.288Z,4.73
2023-03-27T07:55:33.015Z,4.03
2023-03-27T07:58:02.796Z,5.30
2023-03-27T08:00:31.228Z,8.03
2023-03-27T08:03:08.361Z,2.30
2023-03-27T08:05:35.843Z,2.73
2023-03-27T08:08:02.372Z,4.20
2023-03-27T08:10:29.015Z,5.13
2023-03-27T08:12:55.605Z,4.40
2023-03-27T08:15:25.180Z,4.83
2023-03-27T08:17:54.601Z,6.63
2023-03-27T08:23:04.285Z,4.23
2023-03-27T08:25:33.235Z,3.10
2023-03-27T08:28:00.483Z,4.47
2023-03-27T08:30:27.238Z,3.63
2023-03-27T08:32:53.902Z,2.20
2023-03-27T08:35:20.617Z,6.07
2023-03-27T08:37:47.217Z,3.70
2023-03-27T08:40:19.326Z,3.97
2023-03-27T08:42:45.894Z,6.73
2023-03-27T08:45:22.764Z,8.40
2023-03-27T08:48:04.484Z,10.80
2023-03-27T08:50:42.273Z,5.33
2023-03-27T08:53:17.473Z,5.20
2023-03-27T08:55:44.539Z,10.00
2023-03-27T08:58:19.716Z,8.20
2023-03-27T09:01:07.655Z,8.37
2023-03-27T09:03:43.620Z,6.17
2023-03-27T09:06:27.860Z,8.13
2023-03-27T09:09:04.904Z,6.80
2023-03-27T09:11:48.671Z,4.30
2023-03-27T09:14:24.338Z,5.63
2023-03-27T09:16:50.965Z,4.60
2023-03-27T09:19:36.013Z,6.50
2023-03-27T09:22:25.768Z,3.90
2023-03-27T09:24:55.293Z,4.73
2023-03-27T09:27:32.458Z,4.37
2023-03-27T09:30:11.186Z,5.47
2023-03-27T09:32:41.845Z,4.13
2023-03-27T09:35:13.374Z,4.63
2023-03-27T09:37:39.995Z,6.33
2023-03-27T09:40:12.871Z,7.73
2023-03-27T09:42:39.920Z,7.23
2023-03-27T09:45:07.948Z,5.20
2023-03-27T09:47:51.176Z,2.83
2023-03-27T09:50:30.505Z,5.90
2023-03-27T09:53:09.620Z,3.20
2023-03-27T09:55:36.911Z,3.87
2023-03-27T09:58:25.248Z,3.07
2023-03-27T10:01:25.673Z,3.23
2023-03-27T10:03:53.669Z,2.83
2023-03-27T10:06:26.383Z,4.40
2023-03-27T10:08:53.142Z,4.00
2023-03-27T10:11:22.442Z,3.67
2023-03-27T10:13:49.985Z,4.53
2023-03-27T10:16:17.908Z,2.27
2023-03-27T10:18:46.509Z,2.97
2023-03-27T10:21:27.889Z,3.73
2023-03-27T10:24:05.746Z,4.87
2023-03-27T10:26:33.255Z,3.37
2023-03-27T10:29:01.969Z,3.17
2023-03-27T10:31:32.491Z,1.70
2023-03-27T10:34:03.506Z,3.77
2023-03-27T10:36:34.825Z,3.07
2023-03-27T10:39:05.235Z,2.57
2023-03-27T10:41:33.631Z,3.97
2023-03-27T10:44:00.325Z,3.97
2023-03-27T10:46:27.460Z,3.10
2023-03-27T10:49:17.488Z,2.40
2023-03-27T10:51:49.220Z,2.60
2023-03-27T10:54:23.148Z,4.77
2023-03-27T10:57:12.816Z,2.53
2023-03-27T10:59:47.318Z,1.37
2023-03-27T11:02:23.386Z,4.20
2023-03-27T11:04:58.028Z,4.13
2023-03-27T11:07:37.877Z,2.50
2023-03-27T11:10:24.739Z,1.87
2023-03-27T11:12:54.831Z,1.83
2023-03-27T11:15:41.260Z,3.53
2023-03-27T11:18:27.565Z,2.63
2023-03-27T11:20:57.039Z,2.77
2023-03-27T11:23:38.510Z,4.23
2023-03-27T11:26:06.067Z,1.83
2023-03-27T11:28:55.794Z,2.13
2023-03-27T11:31:38.206Z,2.67
2023-03-27T11:34:09.489Z,2.33
2023-03-27T11:36:44.979Z,1.40
2023-03-27T11:39:15.362Z,2.03
2023-03-27T11:41:43.910Z,1.30
2023-03-27T11:44:10.776Z,2.60
2023-03-27T11:46:48.189Z,3.00
2023-03-27T11:49:23.932Z,3.27
2023-03-27T11:52:03.018Z,1.60
2023-03-27T11:54:41.730Z,2.37
2023-03-27T11:57:23.593Z,2.80
2023-03-27T11:59:59.646Z,2.40
2023-03-27T12:02:29.209Z,1.53
2023-03-27T12:05:01.696Z,2.30
2023-03-27T12:07:47.836Z,1.50
2023-03-27T12:10:46.936Z,1.60
2023-03-27T12:13:41.798Z,2.60
2023-03-27T12:16:31.514Z,3.77
2023-03-27T12:19:13.806Z,2.40
2023-03-27T12:21:58.665Z,2.00
2023-03-27T12:24:40.592Z,2.77
2023-03-27T12:27:26.099Z,1.77
2023-03-27T12:30:08.074Z,1.67
2023-03-27T12:32:47.156Z,2.00
2023-03-27T12:35:22.025Z,3.83
2023-03-27T12:38:18.067Z,7.10
2023-03-27T12:41:11.024Z,3.23
2023-03-27T12:43:40.976Z,2.17
2023-03-27T12:46:24.278Z,1.50
2023-03-27T12:48:58.153Z,2.50
2023-03-27T12:51:38.099Z,2.57
2023-03-27T12:54:20.114Z,2.57
2023-03-27T12:57:10.603Z,2.50
2023-03-27T12:59:46.768Z,2.83
2023-03-27T13:02:22.711Z,2.23
2023-03-27T13:05:01.575Z,2.80
2023-03-27T13:07:57.416Z,1.90
2023-03-27T13:10:46.342Z,1.87
2023-03-27T13:13:24.138Z,1.40
2023-03-27T13:16:30.543Z,1.63
2023-03-27T13:19:18.438Z,1.50
2023-03-27T13:22:07.027Z,3.27
2023-03-27T13:24:48.679Z,2.07
2023-03-27T13:27:21.645Z,1.40
2023-03-27T13:29:49.149Z,1.40
2023-03-27T13:32:31.141Z,1.23
2023-03-27T13:35:19.406Z,1.40
2023-03-27T13:37:50.926Z,1.80
2023-03-27T13:40:26.650Z,1.43
2023-03-27T13:43:28.447Z,1.50
2023-03-27T13:45:55.576Z,1.40
2023-03-27T13:48:41.227Z,2.07
2023-03-27T13:51:19.863Z,2.07
2023-03-27T13:54:15.444Z,1.77
2023-03-27T13:56:54.579Z,1.70
2023-03-27T13:59:43.087Z,2.40
2023-03-27T14:02:12.886Z,2.03
2023-03-27T14:04:54.735Z,1.70
2023-03-27T14:07:44.105Z,2.60
2023-03-27T14:10:38.569Z,2.60
2023-03-27T14:13:17.954Z,3.83
2023-03-27T14:16:06.313Z,4.67
2023-03-27T14:18:42.823Z,4.60
2023-03-27T14:21:31.313Z,3.17
2023-03-27T14:24:24.423Z,4.43
2023-03-27T14:26:51.952Z,2.70
2023-03-27T14:29:21.319Z,4.43
2023-03-27T14:31:48.052Z,4.03
2023-03-27T14:34:22.271Z,2.07
2023-03-27T14:36:52.025Z,1.70
2023-03-27T14:39:27.720Z,1.97
2023-03-27T14:42:01.699Z,2.90
2023-03-27T14:44:32.100Z,2.00
2023-03-27T14:47:08.250Z,3.47
2023-03-27T14:49:40.320Z,2.23
2023-03-27T14:52:09.117Z,4.00
2023-03-27T14:54:44.643Z,1.40
2023-03-27T14:57:19.181Z,6.87
2023-03-27T14:59:46.450Z,3.57
2023-03-27T15:02:35.346Z,1.97
2023-03-27T15:05:08.224Z,4.03
2023-03-27T15:07:35.436Z,1.73
2023-03-27T15:10:07.686Z,2.83
2023-03-27T15:12:34.301Z,1.73
2023-03-27T15:15:00.827Z,2.93
2023-03-27T15:17:28.515Z,2.20
2023-03-27T15:20:14.350Z,1.97
2023-03-27T15:22:47.409Z,2.23
2023-03-27T15:25:17.712Z,2.67
2023-03-27T15:27:52.847Z,3.23
2023-03-27T15:30:30.473Z,2.50
2023-03-27T15:33:01.751Z,3.17
2023-03-27T15:35:40.268Z,2.03
2023-03-27T15:38:07.625Z,2.47
2023-03-27T15:40:40.940Z,1.90
2023-03-27T15:43:08.701Z,2.70
2023-03-27T15:45:55.979Z,2.30
2023-03-27T15:48:35.748Z,2.80
2023-03-27T15:51:06.933Z,2.37
2023-03-27T15:53:40.766Z,2.67
2023-03-27T15:56:08.047Z,2.30
2023-03-27T15:58:39.994Z,2.13
2023-03-27T16:01:18.039Z,1.97
2023-03-27T16:03:47.580Z,4.00
2023-03-27T16:06:22.051Z,2.90
2023-03-27T16:08:48.992Z,2.93
2023-03-27T16:11:43.704Z,1.77
2023-03-27T16:14:48.709Z,3.73
2023-03-27T16:17:18.918Z,3.53
2023-03-27T16:19:56.484Z,3.00
2023-03-27T16:22:30.751Z,2.93
2023-03-27T16:24:57.869Z,3.40
2023-03-27T16:27:27.163Z,3.53
2023-03-27T16:29:53.757Z,3.03
2023-03-27T16:32:21.168Z,3.00
2023-03-27T16:34:53.211Z,3.50
2023-03-27T16:37:22.843Z,4.03
2023-03-27T16:39:49.910Z,6.27
2023-03-27T16:42:18.333Z,6.03
2023-03-27T16:44:45.006Z,5.67
2023-03-27T16:47:12.491Z,3.80
2023-03-27T16:49:39.078Z,5.63
2023-03-27T16:52:05.749Z,7.60
2023-03-27T16:54:32.374Z,6.23
2023-03-27T16:56:58.992Z,5.97
2023-03-27T16:59:26.357Z,4.97
2023-03-27T17:01:52.940Z,4.33
2023-03-27T17:04:19.600Z,4.27
2023-03-27T17:06:46.793Z,2.10
2023-03-27T17:09:13.372Z,5.50
2023-03-27T17:11:40.171Z,5.63
2023-03-27T17:14:06.877Z,4.90
2023-03-27T17:16:33.834Z,4.97
2023-03-27T17:19:00.980Z,5.70
2023-03-27T17:21:27.705Z,4.33
2023-03-27T17:23:54.280Z,3.63
2023-03-27T17:26:30.218Z,3.20
2023-03-27T17:28:56.804Z,2.57
2023-03-27T17:31:23.559Z,2.87
2023-03-27T17:33:51.608Z,3.00
2023-03-27T17:36:26.825Z,2.77
2023-03-27T17:39:05.681Z,4.13
2023-03-27T17:41:32.672Z,2.30
2023-03-27T17:43:59.340Z,3.00
2023-03-27T17:46:26.109Z,2.57
2023-03-27T17:48:52.755Z,2.97
2023-03-27T17:51:19.256Z,2.33
2023-03-27T17:53:45.872Z,3.93
2023-03-27T17:56:12.422Z,3.00
2023-03-27T17:58:38.973Z,3.77
2023-03-27T18:01:18.947Z,1.90
2023-03-27T18:03:46.141Z,4.27
2023-03-27T18:06:13.329Z,2.90
2023-03-27T18:08:39.957Z,2.07
2023-03-27T18:11:13.529Z,2.00
2023-03-27T18:13:40.319Z,3.97
2023-03-27T18:16:10.339Z,2.13
2023-03-27T18:18:40.176Z,3.30
2023-03-27T18:21:06.813Z,2.07
2023-03-27T18:23:34.819Z,2.57
2023-03-27T18:26:07.534Z,2.20
2023-03-27T18:28:34.201Z,2.40
2023-03-27T18:31:05.440Z,1.70
2023-03-27T18:33:32.131Z,2.83
2023-03-27T18:35:58.978Z,2.43
2023-03-27T18:38:26.234Z,2.20
2023-03-27T18:40:55.441Z,2.87
2023-03-27T18:43:23.168Z,2.17
2023-03-27T18:46:00.205Z,2.03
2023-03-27T18:48:27.130Z,2.73
2023-03-27T18:50:57.845Z,1.73
2023-03-27T18:53:24.576Z,2.60
2023-03-27T18:55:52.722Z,1.83
2023-03-27T18:58:19.726Z,4.33
2023-03-27T19:00:46.397Z,1.83
2023-03-27T19:03:17.993Z,2.83
2023-03-27T19:05:44.976Z,2.00
2023-03-27T19:08:11.499Z,2.93
2023-03-27T19:10:38.110Z,4.03
2023-03-27T19:13:04.661Z,3.00
2023-03-27T19:15:31.393Z,2.33
2023-03-27T19:17:58.035Z,1.90
2023-03-27T19:20:24.716Z,2.80
2023-03-27T19:22:51.274Z,3.27
2023-03-27T19:25:17.858Z,1.93
2023-03-27T19:27:44.372Z,2.00
2023-03-27T19:30:11.783Z,1.90
2023-03-27T19:32:39.010Z,1.90
2023-03-27T19:35:06.051Z,2.20
2023-03-27T19:37:32.651Z,3.10
2023-03-27T19:40:01.922Z,2.10
2023-03-27T19:42:28.580Z,2.87
2023-03-27T19:44:56.632Z,1.67
2023-03-27T19:47:23.149Z,1.70
2023-03-27T19:49:49.659Z,1.83
2023-03-27T19:52:16.951Z,2.43
2023-03-27T19:54:43.518Z,2.00
2023-03-27T19:57:10.079Z,1.70
2023-03-27T19:59:36.691Z,1.60
2023-03-27T20:02:04.186Z,1.70
2023-03-27T20:04:31.085Z,3.87
2023-03-27T20:06:58.914Z,1.53
2023-03-27T20:09:25.653Z,1.73
2023-03-27T20:11:53.375Z,1.70
2023-03-27T20:14:19.995Z,2.07
2023-03-27T20:16:46.642Z,1.90
2023-03-27T20:19:14.230Z,1.90
2023-03-27T20:21:41.270Z,4.03
2023-03-27T20:24:09.818Z,2.07
2023-03-27T20:26:40.516Z,1.80
2023-03-27T20:29:08.427Z,2.67
2023-03-27T20:31:35.299Z,2.10
2023-03-27T20:34:01.830Z,1.70
2023-03-27T20:36:28.374Z,1.60
2023-03-27T20:38:56.414Z,1.73
2023-03-27T20:41:22.984Z,2.00
2023-03-27T20:43:50.889Z,2.07
2023-03-27T20:46:18.027Z,2.47
2023-03-27T20:48:54.179Z,2.57
2023-03-27T20:51:24.178Z,2.00
2023-03-27T20:53:54.229Z,2.10
2023-03-27T20:56:21.610Z,1.60
2023-03-27T20:58:48.527Z,1.97
2023-03-27T21:01:15.155Z,1.60
2023-03-27T21:03:46.399Z,1.80
2023-03-27T21:06:14.894Z,2.07
2023-03-27T21:08:41.713Z,2.93
2023-03-27T21:11:08.559Z,1.87
2023-03-27T21:13:35.346Z,2.03
2023-03-27T21:16:02.517Z,1.83
2023-03-27T21:18:29.309Z,2.30
2023-03-27T21:20:56.005Z,2.30
2023-03-27T21:23:22.695Z,1.97
2023-03-27T21:25:50.986Z,1.70
2023-03-27T21:28:17.893Z,1.63
2023-03-27T21:30:46.801Z,2.17
2023-03-27T21:33:16.105Z,1.90
2023-03-27T21:35:46.158Z,1.70
2023-03-27T21:38:13.725Z,2.37
2023-03-27T21:40:40.792Z,2.00
2023-03-27T21:43:08.419Z,1.87
2023-03-27T21:45:35.760Z,2.30
2023-03-27T21:48:02.356Z,2.57
2023-03-27T21:50:28.966Z,1.70
2023-03-27T21:52:55.703Z,1.63
2023-03-27T21:55:22.209Z,1.63
2023-03-27T21:57:48.712Z,1.77
2023-03-27T22:00:15.744Z,1.50
2023-03-27T22:02:42.823Z,2.10
2023-03-27T22:05:09.674Z,2.03
2023-03-27T22:07:36.291Z,1.90
2023-03-27T22:10:06.202Z,1.60
2023-03-27T22:12:36.660Z,1.60
2023-03-27T22:15:03.464Z,1.67
2023-03-27T22:17:30.359Z,2.07
2023-03-27T22:19:57.578Z,1.70
2023-03-27T22:22:24.949Z,2.00
2023-03-27T22:24:51.516Z,1.90
2023-03-27T22:27:18.143Z,2.00
2023-03-27T22:29:44.709Z,2.10
2023-03-27T22:32:11.465Z,1.70
2023-03-27T22:34:37.998Z,1.77
2023-03-27T22:37:04.553Z,1.60
2023-03-27T22:39:31.556Z,1.70
2023-03-27T22:41:58.084Z,1.50
2023-03-27T22:44:24.672Z,1.47
2023-03-27T22:46:52.984Z,1.90
2023-03-27T22:49:19.704Z,1.80
2023-03-27T22:51:46.309Z,2.23
2023-03-27T22:54:12.825Z,1.97
2023-03-27T22:56:39.358Z,1.60
2023-03-27T22:59:06.122Z,1.80
2023-03-27T23:01:32.853Z,1.77
2023-03-27T23:03:59.485Z,1.93
2023-03-27T23:06:26.300Z,2.17
2023-03-27T23:08:52.987Z,1.97
2023-03-27T23:11:19.556Z,2.17
2023-03-27T23:13:46.081Z,2.00
2023-03-27T23:16:13.156Z,2.03
2023-03-27T23:18:39.767Z,1.90
2023-03-27T23:21:08.136Z,1.70
2023-03-27T23:23:35.225Z,2.00
2023-03-27T23:26:03.037Z,2.10
2023-03-27T23:28:31.647Z,1.80
2023-03-27T23:31:02.354Z,2.37
2023-03-27T23:33:29.515Z,1.90
2023-03-27T23:36:10.122Z,1.67
2023-03-27T23:38:37.412Z,1.70
2023-03-27T23:41:06.475Z,2.07
2023-03-27T23:43:33.160Z,1.63
2023-03-27T23:46:00.088Z,1.67
2023-03-27T23:48:28.004Z,1.67
2023-03-27T23:50:54.944Z,2.07
2023-03-27T23:53:22.084Z,2.10
2023-03-27T23:55:48.834Z,2.10
2023-03-27T23:58:15.500Z,2.03
